createdAt,value
2023-04-30T00:01:22.238Z,11.60
2023-04-30T00:06:25.089Z,11.50
2023-04-30T00:11:28.195Z,11.40
2023-04-30T00:16:30.025Z,11.50
2023-04-30T00:21:31.993Z,11.50
2023-04-30T00:26:33.805Z,11.50
2023-04-30T00:31:35.747Z,11.50
2023-04-30T00:36:37.651Z,11.60
2023-04-30T00:41:40.061Z,11.60
2023-04-30T00:46:41.882Z,11.60
2023-04-30T00:51:44.259Z,11.60
2023-04-30T00:56:46.915Z,11.60
2023-04-30T01:01:49.037Z,11.50
2023-04-30T01:06:52.023Z,11.50
2023-04-30T01:12:06.157Z,11.50
2023-04-30T01:17:23.873Z,11.40
2023-04-30T01:22:36.572Z,11.50
2023-04-30T01:27:50.698Z,11.50
2023-04-30T01:32:52.521Z,11.50
2023-04-30T01:38:28.119Z,11.40
2023-04-30T01:44:08.593Z,11.40
2023-04-30T01:49:30.238Z,11.40
2023-04-30T01:54:53.156Z,11.30
2023-04-30T01:59:55.430Z,11.30
2023-04-30T02:04:57.432Z,11.30
2023-04-30T02:09:59.210Z,11.40
2023-04-30T02:15:02.106Z,11.30
2023-04-30T02:20:04.685Z,11.30
2023-04-30T02:25:07.020Z,11.40
2023-04-30T02:30:09.158Z,11.30
2023-04-30T02:35:11.263Z,11.30
2023-04-30T02:40:13.255Z,11.30
2023-04-30T02:45:15.220Z,11.30
2023-04-30T02:50:17.158Z,11.30
2023-04-30T02:55:19.086Z,11.40
2023-04-30T03:00:21.382Z,11.30
2023-04-30T03:05:24.066Z,11.20
2023-04-30T03:10:26.111Z,11.10
2023-04-30T03:15:27.956Z,11.10
2023-04-30T03:20:29.757Z,11.10
2023-04-30T03:25:31.784Z,11.00
2023-04-30T03:30:33.529Z,11.00
2023-04-30T03:35:35.662Z,11.00
2023-04-30T03:40:37.476Z,10.90
2023-04-30T03:45:39.372Z,10.80
2023-04-30T03:50:41.208Z,10.80
2023-04-30T03:55:43.191Z,10.80
2023-04-30T04:00:48.216Z,10.80
2023-04-30T04:05:50.078Z,10.80
2023-04-30T04:10:52.981Z,10.90
2023-04-30T04:15:54.787Z,11.00
2023-04-30T04:20:56.828Z,11.10
2023-04-30T04:25:58.799Z,10.80
2023-04-30T04:31:00.549Z,11.00
2023-04-30T04:36:02.375Z,11.00
2023-04-30T04:41:04.439Z,11.00
2023-04-30T04:46:09.627Z,11.00
2023-04-30T04:51:12.650Z,11.20
2023-04-30T04:56:14.551Z,11.20
2023-04-30T05:01:16.627Z,11.20
2023-04-30T05:06:21.300Z,11.30
2023-04-30T05:11:23.234Z,11.50
2023-04-30T05:16:27.025Z,11.80
2023-04-30T05:21:29.829Z,12.20
2023-04-30T05:26:31.699Z,12.10
2023-04-30T05:31:33.516Z,13.10
2023-04-30T05:36:35.321Z,14.10
2023-04-30T05:41:37.256Z,15.70
2023-04-30T05:46:39.088Z,18.70
2023-04-30T05:51:40.927Z,20.50
2023-04-30T05:56:43.074Z,21.40
2023-04-30T06:01:44.915Z,22.30
2023-04-30T06:06:46.857Z,22.90
2023-04-30T06:11:51.997Z,23.90
2023-04-30T06:16:53.976Z,23.40
2023-04-30T06:21:55.921Z,22.00
2023-04-30T06:26:57.692Z,21.90
2023-04-30T06:31:59.580Z,21.50
2023-04-30T06:37:01.483Z,19.40
2023-04-30T06:42:03.967Z,19.80
2023-04-30T06:47:05.899Z,22.00
2023-04-30T06:52:08.412Z,19.50
2023-04-30T06:57:10.320Z,20.10
2023-04-30T07:02:12.260Z,20.00
2023-04-30T07:07:14.163Z,20.80
2023-04-30T07:12:16.098Z,20.20
2023-04-30T07:17:18.250Z,20.80
2023-04-30T07:22:20.055Z,21.10
2023-04-30T07:27:21.928Z,21.10
2023-04-30T07:32:27.520Z,20.40
2023-04-30T07:37:29.371Z,22.10
2023-04-30T07:42:31.165Z,21.30
2023-04-30T07:47:33.073Z,21.00
2023-04-30T07:52:34.887Z,21.20
2023-04-30T07:57:36.691Z,21.90
2023-04-30T08:02:38.612Z,20.10
2023-04-30T08:07:41.627Z,21.20
2023-04-30T08:12:43.522Z,22.10
2023-04-30T08:17:45.399Z,22.20
2023-04-30T08:22:47.221Z,21.10
2023-04-30T08:27:48.999Z,21.70
2023-04-30T08:32:51.273Z,20.80
2023-04-30T08:37:53.586Z,19.90
2023-04-30T08:43:06.305Z,21.30
2023-04-30T08:48:15.771Z,20.70
2023-04-30T08:53:21.033Z,21.40
2023-04-30T08:58:22.890Z,21.50
2023-04-30T09:03:25.049Z,21.50
2023-04-30T09:08:47.105Z,21.90
2023-04-30T09:13:52.704Z,21.60
2023-04-30T09:18:54.646Z,22.10
2023-04-30T09:23:58.750Z,21.80
2023-04-30T09:29:08.293Z,22.00
2023-04-30T09:34:10.438Z,22.10
2023-04-30T09:39:17.533Z,20.70
2023-04-30T09:44:30.592Z,21.70
2023-04-30T09:49:37.299Z,22.40
2023-04-30T09:54:40.174Z,21.40
2023-04-30T09:59:45.238Z,20.20
2023-04-30T10:04:53.794Z,21.30
2023-04-30T10:10:18.353Z,22.00
2023-04-30T10:15:30.881Z,21.60
2023-04-30T10:20:37.283Z,22.30
2023-04-30T10:25:41.759Z,21.60
2023-04-30T10:30:44.342Z,21.90
2023-04-30T10:36:05.722Z,22.10
2023-04-30T10:41:09.564Z,22.10
2023-04-30T10:46:11.584Z,22.40
2023-04-30T10:51:14.458Z,20.60
2023-04-30T10:56:30.087Z,21.50
2023-04-30T11:01:32.616Z,21.40
2023-04-30T11:06:52.545Z,21.50
2023-04-30T11:12:03.760Z,21.70
2023-04-30T11:17:05.928Z,21.50
2023-04-30T11:22:07.787Z,22.10
2023-04-30T11:27:13.864Z,21.80
2023-04-30T11:32:16.306Z,22.10
2023-04-30T11:37:29.512Z,22.00
2023-04-30T11:42:34.455Z,21.20
2023-04-30T11:47:43.322Z,21.40
2023-04-30T11:52:55.934Z,21.90
2023-04-30T11:57:59.436Z,21.90
2023-04-30T12:03:03.872Z,21.80
2023-04-30T12:08:09.070Z,21.70
2023-04-30T12:13:15.013Z,22.90
2023-04-30T12:18:16.832Z,23.50
2023-04-30T12:23:19.573Z,23.50
2023-04-30T12:28:23.707Z,22.70
2023-04-30T12:33:29.861Z,23.50
2023-04-30T12:38:31.687Z,22.10
2023-04-30T12:43:33.505Z,22.20
2023-04-30T12:48:47.535Z,21.50
2023-04-30T12:53:49.317Z,21.40
2023-04-30T12:58:51.298Z,22.10
2023-04-30T13:03:53.937Z,21.10
2023-04-30T13:08:58.352Z,20.80
2023-04-30T13:14:00.817Z,21.30
2023-04-30T13:19:02.767Z,22.00
2023-04-30T13:24:04.953Z,21.30
2023-04-30T13:29:07.311Z,21.90
2023-04-30T13:34:10.192Z,22.40
2023-04-30T13:39:12.094Z,20.30
2023-04-30T13:44:13.896Z,19.70
2023-04-30T13:49:16.005Z,19.80
2023-04-30T13:54:18.009Z,21.20
2023-04-30T13:59:20.006Z,21.60
2023-04-30T14:04:21.777Z,22.10
2023-04-30T14:09:23.703Z,20.90
2023-04-30T14:14:26.457Z,20.30
2023-04-30T14:19:28.789Z,19.70
2023-04-30T14:24:30.945Z,21.10
2023-04-30T14:29:32.664Z,21.80
2023-04-30T14:34:34.603Z,22.30
2023-04-30T14:39:36.341Z,22.30
2023-04-30T14:44:38.598Z,21.00
2023-04-30T14:49:40.823Z,20.10
2023-04-30T14:54:43.394Z,20.00
2023-04-30T14:59:45.191Z,20.70
2023-04-30T15:04:47.324Z,21.10
2023-04-30T15:09:49.408Z,21.00
2023-04-30T15:14:51.377Z,20.20
2023-04-30T15:19:54.013Z,19.30
2023-04-30T15:24:57.486Z,19.90
2023-04-30T15:29:59.212Z,20.30
2023-04-30T15:35:01.716Z,21.00
2023-04-30T15:40:07.226Z,20.40
2023-04-30T15:45:10.460Z,19.50
2023-04-30T15:50:12.501Z,19.20
2023-04-30T15:55:14.538Z,18.80
2023-04-30T16:00:16.838Z,18.70
2023-04-30T16:05:19.178Z,18.80
2023-04-30T16:10:21.588Z,19.40
2023-04-30T16:15:24.444Z,19.60
2023-04-30T16:20:27.351Z,19.80
2023-04-30T16:25:29.375Z,19.60
2023-04-30T16:30:31.752Z,19.40
2023-04-30T16:35:33.498Z,19.40
2023-04-30T16:40:35.282Z,19.30
2023-04-30T16:45:37.451Z,19.20
2023-04-30T16:50:39.234Z,18.60
2023-04-30T16:55:41.376Z,18.60
2023-04-30T17:00:43.158Z,18.50
2023-04-30T17:05:44.897Z,18.50
2023-04-30T17:10:47.594Z,18.30
2023-04-30T17:15:49.412Z,18.40
2023-04-30T17:20:52.256Z,18.30
2023-04-30T17:25:54.022Z,18.10
2023-04-30T17:30:55.880Z,18.10
2023-04-30T17:35:58.515Z,18.10
2023-04-30T17:41:00.456Z,17.80
2023-04-30T18:09:11.216Z,15.80
2023-04-30T18:14:13.033Z,16.00
2023-04-30T18:19:15.088Z,16.10
2023-04-30T18:24:17.367Z,16.20
2023-04-30T18:29:19.240Z,15.80
2023-04-30T18:34:21.341Z,15.80
2023-04-30T18:39:23.243Z,15.60
2023-04-30T18:44:34.883Z,15.40
2023-04-30T18:49:37.118Z,15.30
2023-04-30T18:54:38.824Z,15.20
2023-04-30T18:59:40.600Z,15.10
2023-04-30T19:04:42.294Z,15.00
2023-04-30T19:09:45.405Z,14.90
2023-04-30T19:14:47.211Z,14.90
2023-04-30T19:19:50.176Z,14.90
2023-04-30T19:24:52.682Z,15.00
2023-04-30T19:29:55.002Z,15.00
2023-04-30T19:34:58.922Z,14.90
2023-04-30T19:40:00.765Z,14.80
2023-04-30T19:45:03.542Z,14.80
2023-04-30T19:50:05.915Z,14.50
2023-04-30T19:55:08.262Z,14.40
2023-04-30T20:00:13.634Z,14.30
2023-04-30T20:05:15.615Z,14.20
2023-04-30T20:10:17.438Z,14.30
2023-04-30T20:15:19.902Z,14.10
2023-04-30T20:20:25.426Z,14.10
2023-04-30T20:25:29.352Z,14.00
2023-04-30T20:30:31.346Z,14.00
2023-04-30T20:35:33.120Z,13.90
2023-04-30T20:40:35.021Z,13.80
2023-04-30T20:45:37.166Z,13.60
2023-04-30T20:50:39.020Z,13.50
2023-04-30T20:55:41.173Z,13.40
2023-04-30T21:00:43.022Z,13.40
2023-04-30T21:05:45.184Z,13.40
2023-04-30T21:10:46.968Z,13.30
2023-04-30T21:15:52.006Z,13.10
2023-04-30T21:20:53.838Z,13.10
2023-04-30T21:25:55.778Z,13.10
2023-04-30T21:30:57.777Z,13.00
2023-04-30T21:35:59.634Z,13.00
2023-04-30T21:41:01.486Z,13.00
2023-04-30T21:46:04.002Z,12.90
2023-04-30T21:51:17.184Z,12.80
2023-04-30T21:56:20.994Z,12.60
2023-04-30T22:01:27.497Z,12.70
2023-04-30T22:06:29.621Z,12.60
2023-04-30T22:11:31.726Z,12.50
2023-04-30T22:16:33.787Z,12.60
2023-04-30T22:21:35.644Z,12.50
2023-04-30T22:26:37.338Z,12.60
2023-04-30T22:31:39.200Z,12.50
2023-04-30T22:36:41.018Z,12.50
2023-04-30T22:41:46.324Z,12.50
2023-04-30T22:46:48.881Z,12.20
2023-04-30T22:51:51.060Z,12.30
2023-04-30T22:56:52.776Z,12.20
2023-04-30T23:01:54.521Z,12.20
2023-04-30T23:06:56.578Z,12.10
2023-04-30T23:11:58.306Z,12.10
2023-04-30T23:17:00.746Z,12.30
2023-04-30T23:22:02.623Z,12.30
2023-04-30T23:27:04.451Z,12.30
2023-04-30T23:32:06.446Z,12.20
2023-04-30T23:37:08.462Z,12.10
2023-04-30T23:42:11.305Z,12.20
2023-04-30T23:47:13.551Z,12.10
2023-04-30T23:52:15.381Z,11.90
2023-04-30T23:57:17.611Z,11.90
